createdAt,value
2019-06-26T00:01:08.828Z,25.98
2019-06-26T00:03:35.126Z,26.00
2019-06-26T00:06:01.410Z,25.68
2019-06-26T00:08:27.660Z,25.81
2019-06-26T00:10:53.845Z,25.34
2019-06-26T00:13:26.143Z,25.05
2019-06-26T00:15:48.026Z,24.70
2019-06-26T00:18:14.314Z,24.74
2019-06-26T00:20:40.597Z,24.93
2019-06-26T00:23:06.795Z,24.67
2019-06-26T00:25:33.105Z,24.42
2019-06-26T00:27:59.320Z,24.35
2019-06-26T00:30:25.535Z,24.26
2019-06-26T00:32:51.709Z,24.40
2019-06-26T00:35:17.992Z,24.48
2019-06-26T00:37:44.182Z,24.36
2019-06-26T00:40:11.749Z,24.39
2019-06-26T00:42:37.933Z,24.39
2019-06-26T00:45:05.251Z,24.59
2019-06-26T00:47:31.610Z,24.70
2019-06-26T00:49:57.698Z,24.68
2019-06-26T00:52:23.741Z,24.45
2019-06-26T00:54:49.964Z,24.34
2019-06-26T00:57:16.143Z,24.31
2019-06-26T00:59:42.337Z,24.29
2019-06-26T01:02:08.606Z,24.28
2019-06-26T01:04:39.697Z,24.22
2019-06-26T01:07:05.778Z,24.19
2019-06-26T01:09:31.961Z,24.15
2019-06-26T01:11:58.474Z,24.15
2019-06-26T01:14:24.659Z,24.11
2019-06-26T01:16:50.714Z,24.19
2019-06-26T01:19:17.005Z,24.19
2019-06-26T01:21:43.089Z,24.03
2019-06-26T01:24:09.273Z,23.94
2019-06-26T01:26:35.551Z,24.06
2019-06-26T01:29:01.850Z,24.04
2019-06-26T01:31:29.101Z,24.03
2019-06-26T01:33:55.300Z,23.88
2019-06-26T01:36:21.481Z,23.87
2019-06-26T01:38:47.685Z,23.88
2019-06-26T01:41:13.956Z,23.96
2019-06-26T01:43:40.241Z,23.99
2019-06-26T01:46:06.426Z,23.93
2019-06-26T01:48:32.747Z,23.98
2019-06-26T01:50:58.885Z,23.93
2019-06-26T01:53:25.038Z,23.89
2019-06-26T01:55:51.250Z,24.02
2019-06-26T01:58:17.431Z,24.19
2019-06-26T02:00:43.535Z,24.12
2019-06-26T02:03:09.778Z,24.22
2019-06-26T02:05:35.960Z,24.12
2019-06-26T02:08:02.245Z,23.94
2019-06-26T02:10:28.348Z,23.71
2019-06-26T02:12:54.640Z,23.60
2019-06-26T02:15:21.145Z,23.65
2019-06-26T02:17:47.320Z,23.59
2019-06-26T02:20:13.712Z,23.55
2019-06-26T02:22:39.877Z,23.59
2019-06-26T02:25:06.769Z,23.67
2019-06-26T02:27:33.376Z,23.70
2019-06-26T02:29:59.458Z,23.67
2019-06-26T02:32:25.621Z,23.64
2019-06-26T02:34:52.404Z,23.72
2019-06-26T02:37:18.572Z,23.83
2019-06-26T02:39:44.856Z,23.79
2019-06-26T02:42:11.141Z,23.83
2019-06-26T02:44:52.376Z,23.79
2019-06-26T02:47:18.294Z,23.64
2019-06-26T02:49:33.734Z,23.46
2019-06-26T02:51:59.838Z,23.08
2019-06-26T02:54:26.155Z,23.16
2019-06-26T02:56:53.784Z,23.36
2019-06-26T02:59:19.942Z,23.38
2019-06-26T03:01:46.367Z,23.55
2019-06-26T03:04:12.524Z,23.44
2019-06-26T03:06:38.714Z,23.56
2019-06-26T03:09:05.963Z,23.60
2019-06-26T03:11:32.274Z,23.53
2019-06-26T03:13:58.847Z,23.55
2019-06-26T03:16:25.039Z,23.53
2019-06-26T03:18:51.213Z,23.65
2019-06-26T03:21:17.625Z,23.57
2019-06-26T03:23:44.785Z,23.62
2019-06-26T03:26:11.119Z,23.49
2019-06-26T03:28:37.167Z,23.59
2019-06-26T03:31:03.570Z,23.59
2019-06-26T03:33:29.736Z,23.65
2019-06-26T03:35:56.011Z,23.81
2019-06-26T03:38:22.192Z,23.76
2019-06-26T03:40:48.493Z,23.64
2019-06-26T03:43:14.651Z,23.48
2019-06-26T03:45:41.033Z,23.11
2019-06-26T03:48:07.217Z,23.18
2019-06-26T03:50:33.626Z,23.28
2019-06-26T03:52:59.899Z,23.18
2019-06-26T03:55:26.045Z,23.22
2019-06-26T03:57:52.265Z,23.16
2019-06-26T04:00:37.066Z,23.19
2019-06-26T04:03:03.444Z,23.33
2019-06-26T04:05:29.821Z,23.31
2019-06-26T04:07:56.216Z,23.35
2019-06-26T04:10:22.275Z,23.33
2019-06-26T04:12:48.583Z,23.21
2019-06-26T04:15:15.073Z,23.04
2019-06-26T04:17:41.859Z,23.08
2019-06-26T04:20:09.336Z,23.20
2019-06-26T04:22:35.727Z,23.32
2019-06-26T04:25:06.444Z,23.41
2019-06-26T04:27:32.677Z,23.40
2019-06-26T04:29:58.740Z,23.32
2019-06-26T04:32:25.007Z,23.49
2019-06-26T04:34:54.370Z,23.74
2019-06-26T04:37:19.387Z,23.95
2019-06-26T04:39:45.541Z,24.00
2019-06-26T04:42:11.780Z,24.03
2019-06-26T04:44:37.847Z,23.95
2019-06-26T04:47:04.863Z,23.93
2019-06-26T04:49:31.037Z,24.06
2019-06-26T04:51:57.267Z,23.93
2019-06-26T04:54:23.347Z,23.85
2019-06-26T04:56:49.599Z,23.93
2019-06-26T04:59:15.864Z,24.03
2019-06-26T05:01:42.123Z,24.07
2019-06-26T05:04:08.293Z,24.21
2019-06-26T05:06:34.649Z,24.24
2019-06-26T05:09:01.008Z,24.26
2019-06-26T05:11:29.111Z,24.44
2019-06-26T05:13:55.311Z,24.50
2019-06-26T05:16:21.580Z,24.44
2019-06-26T05:18:48.754Z,24.50
2019-06-26T05:21:15.327Z,24.54
2019-06-26T05:23:41.507Z,24.59
2019-06-26T05:26:07.670Z,24.50
2019-06-26T05:28:33.982Z,24.51
2019-06-26T05:31:00.221Z,24.67
2019-06-26T05:33:26.399Z,24.71
2019-06-26T05:35:52.589Z,24.84
2019-06-26T05:38:18.806Z,24.88
2019-06-26T05:40:44.989Z,25.11
2019-06-26T05:43:11.332Z,25.23
2019-06-26T05:45:37.704Z,25.40
2019-06-26T05:48:03.922Z,25.41
2019-06-26T05:50:30.078Z,25.32
2019-06-26T05:52:56.479Z,25.41
2019-06-26T05:55:22.754Z,25.58
2019-06-26T05:57:49.077Z,25.66
2019-06-26T06:00:16.035Z,25.77
2019-06-26T06:02:42.381Z,25.84
2019-06-26T06:05:09.071Z,25.79
2019-06-26T06:07:35.478Z,25.98
2019-06-26T06:10:02.540Z,25.98
2019-06-26T06:12:29.108Z,25.76
2019-06-26T06:14:55.225Z,25.95
2019-06-26T06:17:21.494Z,26.06
2019-06-26T06:19:48.006Z,26.22
2019-06-26T06:22:14.351Z,26.34
2019-06-26T06:24:40.536Z,26.50
2019-06-26T06:27:06.726Z,26.74
2019-06-26T06:29:33.004Z,26.78
2019-06-26T06:31:59.495Z,26.91
2019-06-26T06:34:25.764Z,26.91
2019-06-26T06:36:51.847Z,27.03
2019-06-26T06:39:17.927Z,27.18
2019-06-26T06:41:44.236Z,27.27
2019-06-26T06:44:10.387Z,27.17
2019-06-26T06:46:36.609Z,27.32
2019-06-26T06:49:03.940Z,27.25
2019-06-26T06:51:30.185Z,27.15
2019-06-26T06:53:56.384Z,27.17
2019-06-26T06:56:22.491Z,27.23
2019-06-26T06:58:49.885Z,27.26
2019-06-26T07:01:16.295Z,27.29
2019-06-26T07:03:42.591Z,27.33
2019-06-26T07:06:08.807Z,27.54
2019-06-26T07:08:35.109Z,27.39
2019-06-26T07:11:01.176Z,27.08
2019-06-26T07:13:27.455Z,27.33
2019-06-26T07:15:53.746Z,27.41
2019-06-26T07:18:19.964Z,27.12
2019-06-26T07:20:46.232Z,27.08
2019-06-26T07:23:12.421Z,27.03
2019-06-26T07:25:38.696Z,26.98
2019-06-26T07:28:05.077Z,27.22
2019-06-26T07:30:31.330Z,27.45
2019-06-26T07:32:57.496Z,27.73
2019-06-26T07:35:23.736Z,27.76
2019-06-26T07:37:49.799Z,27.27
2019-06-26T07:40:16.805Z,27.24
2019-06-26T07:42:43.094Z,27.56
2019-06-26T07:45:09.597Z,27.54
2019-06-26T07:47:43.134Z,27.18
2019-06-26T07:50:05.665Z,27.32
2019-06-26T07:52:31.813Z,27.67
2019-06-26T07:54:58.333Z,27.94
2019-06-26T07:57:24.609Z,28.14
2019-06-26T07:59:51.028Z,28.12
2019-06-26T08:02:17.291Z,28.40
2019-06-26T08:04:43.594Z,28.64
2019-06-26T08:07:09.694Z,28.78
2019-06-26T08:09:35.993Z,28.10
2019-06-26T08:12:02.167Z,28.22
2019-06-26T08:14:28.768Z,28.47
2019-06-26T08:16:54.907Z,28.46
2019-06-26T08:19:21.084Z,28.46
2019-06-26T08:21:47.269Z,28.77
2019-06-26T08:24:13.695Z,28.94
2019-06-26T08:26:40.085Z,28.99
2019-06-26T08:29:06.366Z,28.87
2019-06-26T08:31:32.462Z,28.64
2019-06-26T08:33:59.063Z,28.60
2019-06-26T08:36:25.291Z,28.44
2019-06-26T08:38:51.455Z,28.60
2019-06-26T08:41:17.651Z,28.68
2019-06-26T08:43:44.064Z,28.47
2019-06-26T08:46:10.291Z,28.68
2019-06-26T08:48:40.010Z,28.56
2019-06-26T08:51:04.652Z,28.94
2019-06-26T08:53:30.734Z,28.65
2019-06-26T08:55:57.049Z,29.27
2019-06-26T08:58:23.198Z,29.77
2019-06-26T09:00:49.517Z,30.07
2019-06-26T09:03:16.787Z,30.09
2019-06-26T09:05:47.929Z,29.92
2019-06-26T09:08:12.207Z,29.48
2019-06-26T09:10:38.606Z,29.46
2019-06-26T09:13:04.885Z,29.39
2019-06-26T09:15:31.328Z,29.65
2019-06-26T09:17:57.516Z,29.70
2019-06-26T09:20:37.929Z,30.23
2019-06-26T09:23:04.328Z,30.16
2019-06-26T09:25:30.440Z,30.50
2019-06-26T09:27:56.628Z,30.66
2019-06-26T09:30:23.375Z,31.17
2019-06-26T09:32:49.569Z,31.55
2019-06-26T09:35:15.981Z,31.70
2019-06-26T09:37:42.393Z,31.71
2019-06-26T09:40:08.991Z,31.65
2019-06-26T09:42:35.195Z,31.29
2019-06-26T09:45:02.094Z,31.96
2019-06-26T09:47:30.966Z,32.52
2019-06-26T09:49:56.363Z,32.65
2019-06-26T09:52:22.729Z,32.62
2019-06-26T09:54:48.995Z,32.89
2019-06-26T09:57:15.291Z,33.25
2019-06-26T09:59:41.360Z,33.21
2019-06-26T10:02:07.586Z,33.05
2019-06-26T10:04:33.828Z,32.81
2019-06-26T10:07:00.049Z,33.32
2019-06-26T10:09:26.300Z,32.87
2019-06-26T10:11:52.553Z,32.93
2019-06-26T10:14:18.607Z,33.16
2019-06-26T10:16:44.709Z,33.46
2019-06-26T10:19:11.241Z,33.52
2019-06-26T10:21:37.360Z,33.85
2019-06-26T10:24:03.708Z,33.54
2019-06-26T10:26:32.419Z,33.24
2019-06-26T10:28:58.104Z,32.73
2019-06-26T10:31:24.392Z,31.31
2019-06-26T10:33:50.658Z,32.08
2019-06-26T10:36:16.852Z,32.78
2019-06-26T10:38:43.150Z,33.04
2019-06-26T10:41:09.347Z,32.71
2019-06-26T10:43:35.545Z,33.14
2019-06-26T10:46:02.812Z,33.53
2019-06-26T10:48:29.411Z,33.45
2019-06-26T10:50:58.913Z,33.48
2019-06-26T10:53:24.014Z,33.80
2019-06-26T10:55:50.300Z,34.47
2019-06-26T10:58:16.579Z,34.89
2019-06-26T11:00:42.758Z,34.24
2019-06-26T11:03:08.962Z,32.98
2019-06-26T11:05:35.138Z,32.46
2019-06-26T11:08:01.531Z,33.13
2019-06-26T11:10:27.912Z,32.44
2019-06-26T11:12:54.209Z,32.85
2019-06-26T11:15:22.086Z,33.29
2019-06-26T11:17:48.280Z,34.21
2019-06-26T11:20:14.968Z,34.65
2019-06-26T11:22:41.077Z,34.82
2019-06-26T11:25:08.098Z,35.10
2019-06-26T11:27:34.496Z,34.69
2019-06-26T11:30:00.598Z,34.90
2019-06-26T11:32:26.705Z,35.13
2019-06-26T11:34:52.989Z,35.40
2019-06-26T11:37:22.807Z,35.88
2019-06-26T11:39:47.387Z,34.71
2019-06-26T11:42:13.625Z,34.41
2019-06-26T11:44:40.015Z,34.81
2019-06-26T11:47:06.231Z,35.09
2019-06-26T11:49:32.605Z,35.38
2019-06-26T11:51:58.945Z,35.58
2019-06-26T11:54:25.576Z,35.45
2019-06-26T11:56:51.889Z,35.18
2019-06-26T11:59:18.255Z,35.16
2019-06-26T12:01:44.333Z,35.06
2019-06-26T12:04:10.430Z,35.06
2019-06-26T12:06:36.691Z,35.57
2019-06-26T12:09:06.009Z,35.75
2019-06-26T12:11:32.289Z,35.26
2019-06-26T12:13:59.682Z,34.86
2019-06-26T12:16:25.744Z,35.21
2019-06-26T12:18:51.949Z,34.68
2019-06-26T12:21:18.246Z,34.95
2019-06-26T12:23:44.337Z,34.15
2019-06-26T12:26:10.799Z,34.90
2019-06-26T12:28:37.239Z,34.67
2019-06-26T12:31:03.582Z,34.80
2019-06-26T12:33:29.772Z,35.20
2019-06-26T12:35:55.975Z,35.55
2019-06-26T12:38:22.192Z,35.78
2019-06-26T12:40:48.486Z,35.64
2019-06-26T12:43:15.128Z,35.73
2019-06-26T12:45:41.446Z,35.41
2019-06-26T12:48:07.735Z,35.23
2019-06-26T12:50:35.971Z,35.78
2019-06-26T12:53:01.943Z,35.60
2019-06-26T12:55:32.603Z,35.30
2019-06-26T12:58:11.917Z,35.55
2019-06-26T13:00:24.588Z,35.36
2019-06-26T13:02:50.881Z,35.31
2019-06-26T13:05:17.377Z,35.32
2019-06-26T13:07:43.687Z,35.53
2019-06-26T13:10:10.926Z,35.52
2019-06-26T13:12:37.141Z,35.55
2019-06-26T13:15:07.127Z,35.66
2019-06-26T13:17:33.501Z,35.15
2019-06-26T13:20:00.827Z,34.84
2019-06-26T13:22:26.990Z,34.96
2019-06-26T13:24:53.344Z,35.34
2019-06-26T13:27:19.489Z,35.27
2019-06-26T13:29:45.937Z,35.31
2019-06-26T13:32:12.099Z,35.48
2019-06-26T13:34:38.489Z,35.49
2019-06-26T13:37:07.310Z,34.74
2019-06-26T13:39:32.944Z,34.73
2019-06-26T13:41:59.225Z,34.90
2019-06-26T13:44:25.541Z,34.56
2019-06-26T13:46:51.640Z,34.61
2019-06-26T13:49:17.719Z,34.71
2019-06-26T13:51:44.057Z,34.54
2019-06-26T13:54:10.556Z,34.44
2019-06-26T13:56:37.045Z,34.38
2019-06-26T13:59:07.143Z,34.53
2019-06-26T14:01:31.749Z,34.17
2019-06-26T14:03:57.829Z,34.04
2019-06-26T14:06:24.040Z,33.74
2019-06-26T14:08:50.392Z,33.61
2019-06-26T14:11:16.601Z,33.58
2019-06-26T14:13:42.678Z,33.07
2019-06-26T14:16:09.084Z,33.11
2019-06-26T14:18:35.308Z,33.11
2019-06-26T14:21:01.710Z,32.62
2019-06-26T14:23:27.975Z,32.84
2019-06-26T14:25:54.154Z,32.36
2019-06-26T14:28:20.427Z,32.54
2019-06-26T14:30:46.660Z,32.89
2019-06-26T14:33:12.757Z,32.77
2019-06-26T14:35:38.875Z,33.00
2019-06-26T14:38:05.268Z,32.90
2019-06-26T14:40:31.394Z,32.87
2019-06-26T14:42:57.518Z,32.93
2019-06-26T14:45:23.638Z,32.74
2019-06-26T14:47:49.818Z,32.45
2019-06-26T14:50:17.588Z,32.63
2019-06-26T14:52:45.958Z,32.40
2019-06-26T14:55:11.942Z,32.42
2019-06-26T14:57:38.210Z,32.22
2019-06-26T15:00:05.510Z,32.09
2019-06-26T15:02:32.092Z,32.13
2019-06-26T15:04:58.406Z,32.05
2019-06-26T15:07:24.634Z,31.98
2019-06-26T15:09:50.827Z,31.68
2019-06-26T15:12:17.008Z,31.65
2019-06-26T15:14:43.706Z,31.55
2019-06-26T15:17:10.052Z,31.34
2019-06-26T15:19:36.414Z,31.17
2019-06-26T15:22:02.959Z,31.12
2019-06-26T15:24:29.241Z,31.18
2019-06-26T15:26:55.594Z,31.12
2019-06-26T15:29:21.761Z,30.90
2019-06-26T15:31:48.070Z,31.10
2019-06-26T15:34:14.920Z,31.26
2019-06-26T15:36:41.203Z,31.28
2019-06-26T15:39:08.209Z,31.09
2019-06-26T15:41:34.522Z,31.09
2019-06-26T15:44:00.723Z,31.20
2019-06-26T15:46:26.956Z,31.27
2019-06-26T15:48:53.179Z,31.15
2019-06-26T15:51:19.586Z,31.27
2019-06-26T15:53:45.756Z,31.36
2019-06-26T15:56:11.966Z,31.33
2019-06-26T15:58:38.257Z,31.38
2019-06-26T16:01:04.664Z,31.24
2019-06-26T16:03:32.734Z,31.01
2019-06-26T16:05:59.052Z,30.99
2019-06-26T16:08:25.251Z,30.49
2019-06-26T16:10:52.078Z,30.01
2019-06-26T16:13:18.267Z,29.84
2019-06-26T16:15:45.360Z,29.64
2019-06-26T16:18:16.199Z,29.63
2019-06-26T16:20:42.393Z,29.68
2019-06-26T16:23:09.832Z,29.62
2019-06-26T16:25:35.994Z,29.53
2019-06-26T16:28:05.710Z,29.53
2019-06-26T16:30:30.393Z,29.52
2019-06-26T16:32:57.081Z,29.43
2019-06-26T16:35:23.383Z,29.40
2019-06-26T16:37:49.486Z,29.17
2019-06-26T16:40:16.302Z,29.07
2019-06-26T16:42:42.588Z,29.08
2019-06-26T16:45:08.975Z,28.85
2019-06-26T16:47:35.093Z,28.85
2019-06-26T16:50:03.270Z,28.74
2019-06-26T16:52:29.516Z,28.51
2019-06-26T16:54:55.614Z,28.47
2019-06-26T16:57:22.025Z,28.23
2019-06-26T16:59:48.211Z,28.16
2019-06-26T17:02:14.403Z,28.19
2019-06-26T17:04:40.739Z,28.14
2019-06-26T17:07:07.002Z,28.25
2019-06-26T17:09:33.418Z,28.15
2019-06-26T17:11:59.615Z,27.81
2019-06-26T17:14:25.859Z,27.69
2019-06-26T17:16:52.069Z,27.72
2019-06-26T17:19:18.672Z,27.61
2019-06-26T17:21:45.163Z,27.66
2019-06-26T17:24:11.465Z,27.68
2019-06-26T17:26:37.544Z,27.70
2019-06-26T17:29:03.830Z,27.64
2019-06-26T17:31:30.033Z,27.52
2019-06-26T17:33:56.136Z,27.31
2019-06-26T17:36:22.435Z,27.30
2019-06-26T17:38:48.934Z,27.17
2019-06-26T17:41:15.119Z,27.08
2019-06-26T17:43:41.340Z,26.98
2019-06-26T17:46:07.632Z,26.85
2019-06-26T17:48:33.862Z,26.74
2019-06-26T17:51:00.140Z,26.75
2019-06-26T17:53:26.474Z,26.79
2019-06-26T17:55:52.863Z,26.65
2019-06-26T17:58:19.172Z,26.54
2019-06-26T18:00:45.458Z,26.48
2019-06-26T18:03:11.849Z,26.44
2019-06-26T18:05:40.448Z,26.39
2019-06-26T18:08:06.693Z,26.40
2019-06-26T18:10:32.902Z,26.32
2019-06-26T18:12:59.128Z,26.28
2019-06-26T18:15:25.743Z,26.15
2019-06-26T18:17:52.006Z,26.22
2019-06-26T18:20:18.522Z,26.23
2019-06-26T18:22:44.848Z,26.12
2019-06-26T18:25:16.443Z,25.97
2019-06-26T18:27:41.026Z,25.85
2019-06-26T18:30:09.430Z,25.89
2019-06-26T18:32:35.613Z,26.00
2019-06-26T18:35:05.416Z,25.94
2019-06-26T18:37:31.591Z,25.91
2019-06-26T18:39:57.909Z,25.87
2019-06-26T18:42:24.122Z,25.62
2019-06-26T18:44:50.353Z,25.53
2019-06-26T18:47:16.640Z,25.54
2019-06-26T18:49:42.837Z,25.37
2019-06-26T18:52:09.079Z,25.29
2019-06-26T18:54:35.407Z,25.26
2019-06-26T18:57:01.519Z,25.30
2019-06-26T18:59:27.641Z,25.31
2019-06-26T19:01:54.222Z,25.23
2019-06-26T19:04:22.441Z,25.22
2019-06-26T19:06:48.696Z,25.16
2019-06-26T19:09:14.974Z,25.07
2019-06-26T19:11:41.231Z,25.12
2019-06-26T19:14:07.588Z,25.15
2019-06-26T19:16:36.272Z,25.08
2019-06-26T19:19:02.087Z,24.89
2019-06-26T19:21:28.432Z,24.72
2019-06-26T19:24:09.187Z,24.72
2019-06-26T19:26:22.970Z,24.60
2019-06-26T19:28:49.323Z,24.43
2019-06-26T19:31:15.537Z,24.24
2019-06-26T19:33:45.444Z,24.25
2019-06-26T19:36:10.352Z,24.22
2019-06-26T19:38:36.625Z,24.00
2019-06-26T19:41:03.450Z,24.02
2019-06-26T19:43:30.876Z,24.00
2019-06-26T19:45:57.294Z,23.89
2019-06-26T19:48:23.657Z,23.77
2019-06-26T19:50:49.782Z,23.70
2019-06-26T19:53:16.109Z,23.47
2019-06-26T19:55:42.433Z,23.43
2019-06-26T19:58:08.691Z,23.24
2019-06-26T20:00:34.996Z,23.20
2019-06-26T20:03:01.208Z,23.21
2019-06-26T20:05:27.508Z,23.22
2019-06-26T20:07:53.828Z,23.16
2019-06-26T20:10:20.279Z,22.98
2019-06-26T20:12:46.597Z,22.97
2019-06-26T20:15:13.032Z,22.99
2019-06-26T20:17:39.447Z,22.80
2019-06-26T20:20:07.361Z,22.75
2019-06-26T20:22:33.875Z,22.72
2019-06-26T20:25:00.291Z,22.58
2019-06-26T20:27:26.547Z,22.52
2019-06-26T20:29:52.843Z,22.60
2019-06-26T20:32:18.972Z,22.59
2019-06-26T20:34:45.088Z,22.30
2019-06-26T20:37:11.214Z,22.18
2019-06-26T20:39:37.390Z,22.00
2019-06-26T20:42:03.707Z,22.06
2019-06-26T20:44:29.882Z,22.09
2019-06-26T20:46:56.041Z,22.05
2019-06-26T20:49:22.106Z,22.13
2019-06-26T20:51:48.307Z,22.16
2019-06-26T20:54:14.493Z,21.92
2019-06-26T20:56:40.697Z,21.82
2019-06-26T20:59:06.813Z,21.65
2019-06-26T21:01:33.044Z,21.51
2019-06-26T21:03:59.356Z,21.44
2019-06-26T21:06:25.560Z,21.48
2019-06-26T21:08:51.865Z,21.41
2019-06-26T21:11:18.167Z,21.33
2019-06-26T21:13:45.350Z,21.34
2019-06-26T21:16:11.551Z,21.28
2019-06-26T21:18:37.829Z,21.27
2019-06-26T21:21:03.914Z,21.24
2019-06-26T21:23:30.005Z,21.23
2019-06-26T21:25:56.216Z,21.26
2019-06-26T21:28:22.521Z,21.03
2019-06-26T21:30:49.137Z,21.07
2019-06-26T21:33:15.319Z,20.98
2019-06-26T21:35:41.764Z,20.90
2019-06-26T21:38:08.155Z,20.87
2019-06-26T21:40:34.521Z,20.89
2019-06-26T21:43:01.805Z,20.88
2019-06-26T21:45:27.991Z,20.69
2019-06-26T21:47:54.162Z,20.64
2019-06-26T21:50:20.486Z,20.64
2019-06-26T21:52:48.087Z,20.37
2019-06-26T21:55:14.250Z,20.41
2019-06-26T21:57:58.803Z,20.25
2019-06-26T22:00:44.965Z,20.12
2019-06-26T22:03:29.953Z,20.12
2019-06-26T22:06:13.357Z,20.13
2019-06-26T22:08:57.982Z,20.02
2019-06-26T22:11:24.357Z,19.95
2019-06-26T22:13:50.657Z,19.86
2019-06-26T22:16:17.135Z,19.68
2019-06-26T22:18:43.754Z,19.67
2019-06-26T22:21:09.988Z,19.72
2019-06-26T22:23:36.141Z,19.56
2019-06-26T22:26:03.404Z,19.42
2019-06-26T22:28:29.596Z,19.25
2019-06-26T22:30:55.695Z,19.22
2019-06-26T22:33:22.122Z,19.21
2019-06-26T22:35:48.457Z,19.23
2019-06-26T22:38:14.776Z,19.22
2019-06-26T22:40:40.963Z,19.18
2019-06-26T22:43:07.351Z,19.24
2019-06-26T22:45:33.636Z,19.32
2019-06-26T22:47:59.919Z,19.18
2019-06-26T22:50:26.097Z,19.02
2019-06-26T22:52:52.210Z,18.84
2019-06-26T22:55:18.350Z,18.88
2019-06-26T22:57:44.629Z,18.82
2019-06-26T23:00:13.670Z,18.76
2019-06-26T23:02:39.946Z,18.65
2019-06-26T23:05:06.343Z,18.61
2019-06-26T23:07:32.730Z,18.47
2019-06-26T23:09:58.924Z,18.36
2019-06-26T23:12:25.020Z,18.26
2019-06-26T23:14:51.530Z,18.21
2019-06-26T23:17:17.601Z,18.21
2019-06-26T23:19:43.804Z,18.16
2019-06-26T23:22:09.972Z,18.06
2019-06-26T23:24:36.158Z,17.90
2019-06-26T23:27:02.362Z,17.80
2019-06-26T23:29:28.561Z,17.53
2019-06-26T23:31:54.673Z,17.39
2019-06-26T23:34:20.873Z,17.38
2019-06-26T23:36:47.064Z,17.37
2019-06-26T23:39:13.161Z,17.22
2019-06-26T23:41:39.342Z,17.02
2019-06-26T23:44:05.605Z,17.04
2019-06-26T23:46:31.686Z,17.05
2019-06-26T23:48:57.754Z,17.03
2019-06-26T23:51:23.865Z,17.04
2019-06-26T23:53:50.080Z,17.08
2019-06-26T23:56:16.232Z,17.00
2019-06-26T23:58:42.314Z,17.09
